sensor_id;sensor_type;location;lat;lon;timestamp;P1;durP1;ratioP1;P2;durP2;ratioP2
19679;SDS011;9989;48.962;9.182;2023-06-04T00:00:33;9.10;;;4.07;;
19679;SDS011;9989;48.962;9.182;2023-06-04T00:02:58;9.27;;;4.67;;
19679;SDS011;9989;48.962;9.182;2023-06-04T00:05:24;8.53;;;4.67;;
19679;SDS011;9989;48.962;9.182;2023-06-04T00:07:51;8.23;;;4.57;;
19679;SDS011;9989;48.962;9.182;2023-06-04T00:10:17;9.13;;;3.93;;
19679;SDS011;9989;48.962;9.182;2023-06-04T00:12:42;8.93;;;4.70;;
19679;SDS011;9989;48.962;9.182;2023-06-04T00:15:08;9.50;;;4.80;;
19679;SDS011;9989;48.962;9.182;2023-06-04T00:17:34;10.67;;;4.50;;
19679;SDS011;9989;48.962;9.182;2023-06-04T00:20:00;8.97;;;4.70;;
19679;SDS011;9989;48.962;9.182;2023-06-04T00:22:25;8.73;;;4.40;;
19679;SDS011;9989;48.962;9.182;2023-06-04T00:24:51;10.37;;;5.37;;
19679;SDS011;9989;48.962;9.182;2023-06-04T00:27:17;8.83;;;4.97;;
19679;SDS011;9989;48.962;9.182;2023-06-04T00:29:42;9.77;;;5.00;;
19679;SDS011;9989;48.962;9.182;2023-06-04T00:32:08;9.07;;;4.57;;
19679;SDS011;9989;48.962;9.182;2023-06-04T00:34:37;9.80;;;4.77;;
19679;SDS011;9989;48.962;9.182;2023-06-04T00:37:03;9.63;;;4.73;;
19679;SDS011;9989;48.962;9.182;2023-06-04T00:39:29;9.50;;;4.73;;
19679;SDS011;9989;48.962;9.182;2023-06-04T00:41:55;8.20;;;4.43;;
19679;SDS011;9989;48.962;9.182;2023-06-04T00:44:20;7.43;;;4.13;;
19679;SDS011;9989;48.962;9.182;2023-06-04T00:46:50;8.57;;;4.33;;
19679;SDS011;9989;48.962;9.182;2023-06-04T00:49:18;9.27;;;4.57;;
19679;SDS011;9989;48.962;9.182;2023-06-04T00:51:44;8.30;;;4.53;;
19679;SDS011;9989;48.962;9.182;2023-06-04T00:54:10;8.60;;;3.70;;
19679;SDS011;9989;48.962;9.182;2023-06-04T00:56:37;8.93;;;4.73;;
19679;SDS011;9989;48.962;9.182;2023-06-04T00:59:05;8.33;;;4.33;;
19679;SDS011;9989;48.962;9.182;2023-06-04T01:01:47;8.40;;;4.20;;
19679;SDS011;9989;48.962;9.182;2023-06-04T01:04:42;9.03;;;4.30;;
19679;SDS011;9989;48.962;9.182;2023-06-04T01:07:18;8.57;;;4.27;;
19679;SDS011;9989;48.962;9.182;2023-06-04T01:09:45;10.87;;;4.27;;
19679;SDS011;9989;48.962;9.182;2023-06-04T01:12:11;8.17;;;4.10;;
19679;SDS011;9989;48.962;9.182;2023-06-04T01:14:37;7.83;;;3.70;;
19679;SDS011;9989;48.962;9.182;2023-06-04T01:17:06;8.37;;;4.43;;
19679;SDS011;9989;48.962;9.182;2023-06-04T01:25:12;8.37;;;3.87;;
19679;SDS011;9989;48.962;9.182;2023-06-04T01:27:46;9.30;;;4.23;;
19679;SDS011;9989;48.962;9.182;2023-06-04T01:30:17;8.70;;;4.37;;
19679;SDS011;9989;48.962;9.182;2023-06-04T01:32:48;9.10;;;4.27;;
19679;SDS011;9989;48.962;9.182;2023-06-04T01:35:14;10.23;;;4.07;;
19679;SDS011;9989;48.962;9.182;2023-06-04T01:37:40;9.00;;;3.87;;
19679;SDS011;9989;48.962;9.182;2023-06-04T01:40:06;8.23;;;3.87;;
19679;SDS011;9989;48.962;9.182;2023-06-04T01:42:33;8.47;;;3.93;;
19679;SDS011;9989;48.962;9.182;2023-06-04T01:44:59;7.63;;;3.80;;
19679;SDS011;9989;48.962;9.182;2023-06-04T01:47:25;10.47;;;4.30;;
19679;SDS011;9989;48.962;9.182;2023-06-04T01:49:51;7.40;;;3.70;;
19679;SDS011;9989;48.962;9.182;2023-06-04T01:52:16;7.90;;;3.93;;
19679;SDS011;9989;48.962;9.182;2023-06-04T01:54:42;8.50;;;3.67;;
19679;SDS011;9989;48.962;9.182;2023-06-04T01:57:08;7.90;;;3.70;;
19679;SDS011;9989;48.962;9.182;2023-06-04T01:59:35;12.93;;;4.00;;
19679;SDS011;9989;48.962;9.182;2023-06-04T02:02:01;8.03;;;4.10;;
19679;SDS011;9989;48.962;9.182;2023-06-04T02:04:27;8.50;;;4.00;;
19679;SDS011;9989;48.962;9.182;2023-06-04T02:06:53;9.27;;;3.60;;
19679;SDS011;9989;48.962;9.182;2023-06-04T02:09:19;7.33;;;3.40;;
19679;SDS011;9989;48.962;9.182;2023-06-04T02:11:45;8.13;;;3.47;;
19679;SDS011;9989;48.962;9.182;2023-06-04T02:14:11;7.40;;;3.30;;
19679;SDS011;9989;48.962;9.182;2023-06-04T02:16:37;10.37;;;3.70;;
19679;SDS011;9989;48.962;9.182;2023-06-04T02:19:02;6.47;;;3.30;;
19679;SDS011;9989;48.962;9.182;2023-06-04T02:21:28;6.50;;;3.20;;
19679;SDS011;9989;48.962;9.182;2023-06-04T02:23:54;6.87;;;3.20;;
19679;SDS011;9989;48.962;9.182;2023-06-04T02:26:19;15.27;;;3.50;;
19679;SDS011;9989;48.962;9.182;2023-06-04T02:28:46;7.40;;;3.60;;
19679;SDS011;9989;48.962;9.182;2023-06-04T02:31:12;9.00;;;4.00;;
19679;SDS011;9989;48.962;9.182;2023-06-04T02:33:37;7.43;;;3.80;;
19679;SDS011;9989;48.962;9.182;2023-06-04T02:36:03;8.67;;;4.07;;
19679;SDS011;9989;48.962;9.182;2023-06-04T02:38:29;8.63;;;3.90;;
19679;SDS011;9989;48.962;9.182;2023-06-04T02:40:54;6.43;;;3.23;;
19679;SDS011;9989;48.962;9.182;2023-06-04T02:43:20;9.70;;;3.33;;
19679;SDS011;9989;48.962;9.182;2023-06-04T02:45:48;7.43;;;3.43;;
19679;SDS011;9989;48.962;9.182;2023-06-04T02:48:13;7.20;;;3.30;;
19679;SDS011;9989;48.962;9.182;2023-06-04T02:50:39;8.67;;;3.67;;
19679;SDS011;9989;48.962;9.182;2023-06-04T02:53:07;7.70;;;3.60;;
19679;SDS011;9989;48.962;9.182;2023-06-04T02:55:33;7.57;;;3.53;;
19679;SDS011;9989;48.962;9.182;2023-06-04T02:57:59;7.23;;;3.17;;
19679;SDS011;9989;48.962;9.182;2023-06-04T03:00:25;9.00;;;3.73;;
19679;SDS011;9989;48.962;9.182;2023-06-04T03:02:51;6.67;;;3.10;;
19679;SDS011;9989;48.962;9.182;2023-06-04T03:05:17;8.17;;;3.67;;
19679;SDS011;9989;48.962;9.182;2023-06-04T03:07:43;7.53;;;3.10;;
19679;SDS011;9989;48.962;9.182;2023-06-04T03:10:11;7.63;;;3.07;;
19679;SDS011;9989;48.962;9.182;2023-06-04T03:12:37;6.77;;;3.20;;
19679;SDS011;9989;48.962;9.182;2023-06-04T03:15:03;8.00;;;3.10;;
19679;SDS011;9989;48.962;9.182;2023-06-04T03:17:30;8.97;;;3.37;;
19679;SDS011;9989;48.962;9.182;2023-06-04T03:19:56;6.97;;;3.03;;
19679;SDS011;9989;48.962;9.182;2023-06-04T03:22:22;6.70;;;3.10;;
19679;SDS011;9989;48.962;9.182;2023-06-04T03:24:48;8.37;;;2.90;;
19679;SDS011;9989;48.962;9.182;2023-06-04T03:27:14;6.67;;;3.20;;
19679;SDS011;9989;48.962;9.182;2023-06-04T03:29:39;6.93;;;2.77;;
19679;SDS011;9989;48.962;9.182;2023-06-04T03:32:05;7.97;;;2.90;;
19679;SDS011;9989;48.962;9.182;2023-06-04T03:34:31;6.27;;;2.80;;
19679;SDS011;9989;48.962;9.182;2023-06-04T03:36:58;7.00;;;2.93;;
19679;SDS011;9989;48.962;9.182;2023-06-04T03:39:25;7.90;;;3.37;;
19679;SDS011;9989;48.962;9.182;2023-06-04T03:41:50;7.77;;;2.93;;
19679;SDS011;9989;48.962;9.182;2023-06-04T03:44:16;6.63;;;2.90;;
19679;SDS011;9989;48.962;9.182;2023-06-04T03:46:43;6.53;;;2.73;;
19679;SDS011;9989;48.962;9.182;2023-06-04T03:49:10;5.63;;;2.63;;
19679;SDS011;9989;48.962;9.182;2023-06-04T03:51:37;6.80;;;2.93;;
19679;SDS011;9989;48.962;9.182;2023-06-04T03:54:03;8.60;;;2.80;;
19679;SDS011;9989;48.962;9.182;2023-06-04T03:56:29;10.60;;;3.23;;
19679;SDS011;9989;48.962;9.182;2023-06-04T03:58:55;6.13;;;2.77;;
19679;SDS011;9989;48.962;9.182;2023-06-04T04:01:21;6.83;;;2.97;;
19679;SDS011;9989;48.962;9.182;2023-06-04T04:03:48;6.10;;;2.70;;
19679;SDS011;9989;48.962;9.182;2023-06-04T04:06:14;6.93;;;2.70;;
19679;SDS011;9989;48.962;9.182;2023-06-04T04:08:41;8.40;;;2.60;;
19679;SDS011;9989;48.962;9.182;2023-06-04T04:11:10;7.50;;;2.77;;
19679;SDS011;9989;48.962;9.182;2023-06-04T04:13:36;6.00;;;3.07;;
19679;SDS011;9989;48.962;9.182;2023-06-04T04:16:02;6.07;;;2.73;;
19679;SDS011;9989;48.962;9.182;2023-06-04T04:18:28;7.93;;;2.90;;
19679;SDS011;9989;48.962;9.182;2023-06-04T04:20:57;8.17;;;2.63;;
19679;SDS011;9989;48.962;9.182;2023-06-04T04:23:22;7.77;;;3.00;;
19679;SDS011;9989;48.962;9.182;2023-06-04T04:25:48;10.63;;;3.90;;
19679;SDS011;9989;48.962;9.182;2023-06-04T04:28:14;9.67;;;4.03;;
19679;SDS011;9989;48.962;9.182;2023-06-04T04:30:42;6.67;;;3.03;;
19679;SDS011;9989;48.962;9.182;2023-06-04T04:33:09;8.00;;;3.30;;
19679;SDS011;9989;48.962;9.182;2023-06-04T04:35:35;7.27;;;3.13;;
19679;SDS011;9989;48.962;9.182;2023-06-04T04:38:01;6.03;;;2.87;;
19679;SDS011;9989;48.962;9.182;2023-06-04T04:40:30;7.63;;;2.90;;
19679;SDS011;9989;48.962;9.182;2023-06-04T04:42:56;8.00;;;3.20;;
19679;SDS011;9989;48.962;9.182;2023-06-04T04:45:23;7.47;;;3.20;;
19679;SDS011;9989;48.962;9.182;2023-06-04T04:47:49;7.13;;;3.23;;
19679;SDS011;9989;48.962;9.182;2023-06-04T04:50:16;7.90;;;3.50;;
19679;SDS011;9989;48.962;9.182;2023-06-04T04:52:42;7.50;;;3.40;;
19679;SDS011;9989;48.962;9.182;2023-06-04T04:55:08;8.53;;;3.80;;
19679;SDS011;9989;48.962;9.182;2023-06-04T04:57:34;7.27;;;3.27;;
19679;SDS011;9989;48.962;9.182;2023-06-04T05:00:00;6.13;;;2.93;;
19679;SDS011;9989;48.962;9.182;2023-06-04T05:02:27;6.93;;;3.07;;
19679;SDS011;9989;48.962;9.182;2023-06-04T05:04:52;8.87;;;2.80;;
19679;SDS011;9989;48.962;9.182;2023-06-04T05:07:18;8.10;;;3.50;;
19679;SDS011;9989;48.962;9.182;2023-06-04T05:09:46;7.73;;;2.80;;
19679;SDS011;9989;48.962;9.182;2023-06-04T05:12:12;5.73;;;2.57;;
19679;SDS011;9989;48.962;9.182;2023-06-04T05:14:37;5.77;;;2.37;;
19679;SDS011;9989;48.962;9.182;2023-06-04T05:17:03;5.20;;;2.40;;
19679;SDS011;9989;48.962;9.182;2023-06-04T05:19:29;5.33;;;2.23;;
19679;SDS011;9989;48.962;9.182;2023-06-04T05:21:57;6.20;;;2.43;;
19679;SDS011;9989;48.962;9.182;2023-06-04T05:24:24;6.97;;;2.20;;
19679;SDS011;9989;48.962;9.182;2023-06-04T05:26:49;6.70;;;2.60;;
19679;SDS011;9989;48.962;9.182;2023-06-04T05:29:15;5.03;;;2.13;;
19679;SDS011;9989;48.962;9.182;2023-06-04T05:31:41;5.83;;;2.20;;
19679;SDS011;9989;48.962;9.182;2023-06-04T05:34:07;5.03;;;2.30;;
19679;SDS011;9989;48.962;9.182;2023-06-04T05:36:33;7.27;;;2.60;;
19679;SDS011;9989;48.962;9.182;2023-06-04T05:39:02;5.53;;;2.23;;
19679;SDS011;9989;48.962;9.182;2023-06-04T05:41:29;6.93;;;2.37;;
19679;SDS011;9989;48.962;9.182;2023-06-04T05:43:54;8.43;;;2.50;;
19679;SDS011;9989;48.962;9.182;2023-06-04T05:46:20;7.50;;;2.70;;
19679;SDS011;9989;48.962;9.182;2023-06-04T05:48:46;9.37;;;2.70;;
19679;SDS011;9989;48.962;9.182;2023-06-04T05:51:15;6.23;;;2.40;;
19679;SDS011;9989;48.962;9.182;2023-06-04T05:53:40;6.10;;;2.67;;
19679;SDS011;9989;48.962;9.182;2023-06-04T05:56:07;6.80;;;2.73;;
19679;SDS011;9989;48.962;9.182;2023-06-04T05:58:33;4.87;;;2.03;;
19679;SDS011;9989;48.962;9.182;2023-06-04T06:01:02;5.93;;;1.80;;
19679;SDS011;9989;48.962;9.182;2023-06-04T06:03:28;7.37;;;2.27;;
19679;SDS011;9989;48.962;9.182;2023-06-04T06:05:53;7.70;;;2.00;;
19679;SDS011;9989;48.962;9.182;2023-06-04T06:08:20;6.13;;;2.27;;
19679;SDS011;9989;48.962;9.182;2023-06-04T06:10:48;5.50;;;2.20;;
19679;SDS011;9989;48.962;9.182;2023-06-04T06:13:14;7.33;;;2.20;;
19679;SDS011;9989;48.962;9.182;2023-06-04T06:15:40;5.67;;;2.20;;
19679;SDS011;9989;48.962;9.182;2023-06-04T06:18:07;8.20;;;2.07;;
19679;SDS011;9989;48.962;9.182;2023-06-04T06:20:32;7.40;;;2.70;;
19679;SDS011;9989;48.962;9.182;2023-06-04T06:23:05;5.30;;;2.10;;
19679;SDS011;9989;48.962;9.182;2023-06-04T06:25:34;5.63;;;2.20;;
19679;SDS011;9989;48.962;9.182;2023-06-04T06:28:00;4.90;;;2.10;;
19679;SDS011;9989;48.962;9.182;2023-06-04T06:30:25;7.47;;;2.73;;
19679;SDS011;9989;48.962;9.182;2023-06-04T06:32:51;16.87;;;3.07;;
19679;SDS011;9989;48.962;9.182;2023-06-04T06:35:18;7.00;;;2.20;;
19679;SDS011;9989;48.962;9.182;2023-06-04T06:37:44;4.80;;;1.80;;
19679;SDS011;9989;48.962;9.182;2023-06-04T06:40:10;6.07;;;2.40;;
19679;SDS011;9989;48.962;9.182;2023-06-04T06:42:35;5.47;;;2.13;;
19679;SDS011;9989;48.962;9.182;2023-06-04T06:45:01;5.67;;;2.30;;
19679;SDS011;9989;48.962;9.182;2023-06-04T06:47:27;9.77;;;3.13;;
19679;SDS011;9989;48.962;9.182;2023-06-04T06:49:53;6.97;;;2.50;;
19679;SDS011;9989;48.962;9.182;2023-06-04T06:52:19;10.50;;;2.90;;
19679;SDS011;9989;48.962;9.182;2023-06-04T06:54:45;6.83;;;2.37;;
19679;SDS011;9989;48.962;9.182;2023-06-04T06:57:11;5.97;;;2.33;;
19679;SDS011;9989;48.962;9.182;2023-06-04T06:59:37;9.90;;;2.60;;
19679;SDS011;9989;48.962;9.182;2023-06-04T07:02:03;11.57;;;2.53;;
19679;SDS011;9989;48.962;9.182;2023-06-04T07:04:30;5.10;;;1.97;;
19679;SDS011;9989;48.962;9.182;2023-06-04T07:06:55;6.30;;;2.20;;
19679;SDS011;9989;48.962;9.182;2023-06-04T07:09:21;6.07;;;2.37;;
19679;SDS011;9989;48.962;9.182;2023-06-04T07:11:46;8.80;;;2.50;;
19679;SDS011;9989;48.962;9.182;2023-06-04T07:14:12;7.00;;;2.43;;
19679;SDS011;9989;48.962;9.182;2023-06-04T07:16:38;5.87;;;2.10;;
19679;SDS011;9989;48.962;9.182;2023-06-04T07:19:03;6.77;;;2.10;;
19679;SDS011;9989;48.962;9.182;2023-06-04T07:21:29;5.87;;;2.50;;
19679;SDS011;9989;48.962;9.182;2023-06-04T07:23:54;6.43;;;2.40;;
19679;SDS011;9989;48.962;9.182;2023-06-04T07:26:20;5.60;;;2.40;;
19679;SDS011;9989;48.962;9.182;2023-06-04T07:28:46;6.20;;;2.53;;
19679;SDS011;9989;48.962;9.182;2023-06-04T07:31:15;7.43;;;2.40;;
19679;SDS011;9989;48.962;9.182;2023-06-04T07:33:41;7.10;;;2.50;;
19679;SDS011;9989;48.962;9.182;2023-06-04T07:36:14;6.23;;;2.50;;
19679;SDS011;9989;48.962;9.182;2023-06-04T07:38:40;5.27;;;2.43;;
19679;SDS011;9989;48.962;9.182;2023-06-04T07:41:06;6.60;;;2.40;;
19679;SDS011;9989;48.962;9.182;2023-06-04T07:43:33;6.47;;;2.80;;
19679;SDS011;9989;48.962;9.182;2023-06-04T07:46:04;8.07;;;2.73;;
19679;SDS011;9989;48.962;9.182;2023-06-04T07:48:30;6.13;;;2.57;;
19679;SDS011;9989;48.962;9.182;2023-06-04T07:50:57;6.00;;;2.40;;
19679;SDS011;9989;48.962;9.182;2023-06-04T07:53:23;5.97;;;2.37;;
19679;SDS011;9989;48.962;9.182;2023-06-04T07:55:49;5.53;;;2.70;;
19679;SDS011;9989;48.962;9.182;2023-06-04T07:58:15;5.60;;;2.40;;
19679;SDS011;9989;48.962;9.182;2023-06-04T08:00:40;7.90;;;2.50;;
19679;SDS011;9989;48.962;9.182;2023-06-04T08:03:06;5.67;;;2.50;;
19679;SDS011;9989;48.962;9.182;2023-06-04T08:05:32;5.83;;;2.83;;
19679;SDS011;9989;48.962;9.182;2023-06-04T08:07:57;6.80;;;2.90;;
19679;SDS011;9989;48.962;9.182;2023-06-04T08:10:23;6.53;;;2.77;;
19679;SDS011;9989;48.962;9.182;2023-06-04T08:12:49;7.63;;;2.77;;
19679;SDS011;9989;48.962;9.182;2023-06-04T08:15:15;6.57;;;2.70;;
19679;SDS011;9989;48.962;9.182;2023-06-04T08:17:41;7.53;;;2.70;;
19679;SDS011;9989;48.962;9.182;2023-06-04T08:20:07;11.83;;;3.10;;
19679;SDS011;9989;48.962;9.182;2023-06-04T08:22:36;9.23;;;3.17;;
19679;SDS011;9989;48.962;9.182;2023-06-04T08:25:02;7.23;;;2.43;;
19679;SDS011;9989;48.962;9.182;2023-06-04T08:27:29;5.83;;;2.70;;
19679;SDS011;9989;48.962;9.182;2023-06-04T08:29:56;6.90;;;2.90;;
19679;SDS011;9989;48.962;9.182;2023-06-04T08:32:22;6.57;;;2.90;;
19679;SDS011;9989;48.962;9.182;2023-06-04T08:34:48;5.90;;;3.00;;
19679;SDS011;9989;48.962;9.182;2023-06-04T08:37:15;7.77;;;3.00;;
19679;SDS011;9989;48.962;9.182;2023-06-04T08:39:41;7.43;;;2.63;;
19679;SDS011;9989;48.962;9.182;2023-06-04T08:42:07;7.97;;;2.80;;
19679;SDS011;9989;48.962;9.182;2023-06-04T08:44:40;7.67;;;2.70;;
19679;SDS011;9989;48.962;9.182;2023-06-04T08:47:08;7.97;;;3.27;;
19679;SDS011;9989;48.962;9.182;2023-06-04T08:49:38;6.93;;;2.90;;
19679;SDS011;9989;48.962;9.182;2023-06-04T08:52:06;11.53;;;3.03;;
19679;SDS011;9989;48.962;9.182;2023-06-04T08:54:32;7.13;;;3.20;;
19679;SDS011;9989;48.962;9.182;2023-06-04T08:56:58;7.87;;;3.37;;
19679;SDS011;9989;48.962;9.182;2023-06-04T08:59:25;8.50;;;2.93;;
19679;SDS011;9989;48.962;9.182;2023-06-04T09:01:53;11.17;;;3.10;;
19679;SDS011;9989;48.962;9.182;2023-06-04T09:04:19;7.93;;;2.90;;
19679;SDS011;9989;48.962;9.182;2023-06-04T09:06:45;8.83;;;2.90;;
19679;SDS011;9989;48.962;9.182;2023-06-04T09:09:12;5.97;;;2.73;;
19679;SDS011;9989;48.962;9.182;2023-06-04T09:11:49;6.97;;;2.63;;
19679;SDS011;9989;48.962;9.182;2023-06-04T09:14:17;6.93;;;2.87;;
19679;SDS011;9989;48.962;9.182;2023-06-04T09:16:49;6.90;;;3.00;;
19679;SDS011;9989;48.962;9.182;2023-06-04T09:19:17;7.70;;;3.20;;
19679;SDS011;9989;48.962;9.182;2023-06-04T09:24:12;8.13;;;2.67;;
19679;SDS011;9989;48.962;9.182;2023-06-04T09:26:38;6.43;;;2.80;;
19679;SDS011;9989;48.962;9.182;2023-06-04T09:29:04;6.73;;;2.57;;
19679;SDS011;9989;48.962;9.182;2023-06-04T09:31:31;6.30;;;2.80;;
19679;SDS011;9989;48.962;9.182;2023-06-04T09:34:01;6.07;;;2.63;;
19679;SDS011;9989;48.962;9.182;2023-06-04T09:36:30;6.80;;;2.67;;
19679;SDS011;9989;48.962;9.182;2023-06-04T09:39:04;6.30;;;2.70;;
19679;SDS011;9989;48.962;9.182;2023-06-04T09:41:39;6.43;;;2.90;;
19679;SDS011;9989;48.962;9.182;2023-06-04T09:44:05;6.87;;;2.47;;
19679;SDS011;9989;48.962;9.182;2023-06-04T09:46:31;8.87;;;3.03;;
19679;SDS011;9989;48.962;9.182;2023-06-04T09:49:04;4.77;;;2.23;;
19679;SDS011;9989;48.962;9.182;2023-06-04T09:51:30;6.40;;;2.67;;
19679;SDS011;9989;48.962;9.182;2023-06-04T09:54:00;6.23;;;2.67;;
19679;SDS011;9989;48.962;9.182;2023-06-04T09:56:27;10.60;;;3.30;;
19679;SDS011;9989;48.962;9.182;2023-06-04T09:58:54;13.80;;;3.20;;
19679;SDS011;9989;48.962;9.182;2023-06-04T10:01:22;7.73;;;3.23;;
19679;SDS011;9989;48.962;9.182;2023-06-04T10:03:51;8.13;;;3.33;;
19679;SDS011;9989;48.962;9.182;2023-06-04T10:06:18;9.13;;;3.03;;
19679;SDS011;9989;48.962;9.182;2023-06-04T10:08:45;7.57;;;3.47;;
19679;SDS011;9989;48.962;9.182;2023-06-04T10:11:13;7.67;;;3.47;;
19679;SDS011;9989;48.962;9.182;2023-06-04T10:13:48;7.30;;;3.30;;
19679;SDS011;9989;48.962;9.182;2023-06-04T10:16:20;8.13;;;3.30;;
19679;SDS011;9989;48.962;9.182;2023-06-04T10:18:47;9.70;;;3.77;;
19679;SDS011;9989;48.962;9.182;2023-06-04T10:21:14;6.87;;;3.20;;
19679;SDS011;9989;48.962;9.182;2023-06-04T10:23:40;8.23;;;3.20;;
19679;SDS011;9989;48.962;9.182;2023-06-04T10:26:10;7.17;;;3.20;;
19679;SDS011;9989;48.962;9.182;2023-06-04T10:28:42;8.27;;;3.10;;
19679;SDS011;9989;48.962;9.182;2023-06-04T10:31:11;6.93;;;3.13;;
19679;SDS011;9989;48.962;9.182;2023-06-04T10:33:38;7.00;;;3.07;;
19679;SDS011;9989;48.962;9.182;2023-06-04T10:36:17;6.70;;;3.07;;
19679;SDS011;9989;48.962;9.182;2023-06-04T10:38:48;6.87;;;3.43;;
19679;SDS011;9989;48.962;9.182;2023-06-04T10:41:16;8.67;;;3.07;;
19679;SDS011;9989;48.962;9.182;2023-06-04T10:43:43;6.57;;;2.90;;
19679;SDS011;9989;48.962;9.182;2023-06-04T10:46:14;7.03;;;2.90;;
19679;SDS011;9989;48.962;9.182;2023-06-04T10:48:47;8.10;;;3.13;;
19679;SDS011;9989;48.962;9.182;2023-06-04T10:51:32;6.83;;;2.93;;
19679;SDS011;9989;48.962;9.182;2023-06-04T10:53:59;7.30;;;3.27;;
19679;SDS011;9989;48.962;9.182;2023-06-04T10:56:30;7.53;;;3.13;;
19679;SDS011;9989;48.962;9.182;2023-06-04T10:59:00;7.67;;;3.20;;
19679;SDS011;9989;48.962;9.182;2023-06-04T11:01:37;9.77;;;3.27;;
19679;SDS011;9989;48.962;9.182;2023-06-04T11:04:03;8.00;;;3.40;;
19679;SDS011;9989;48.962;9.182;2023-06-04T11:06:29;6.83;;;3.20;;
19679;SDS011;9989;48.962;9.182;2023-06-04T11:09:04;6.53;;;3.17;;
19679;SDS011;9989;48.962;9.182;2023-06-04T11:11:30;7.63;;;3.67;;
19679;SDS011;9989;48.962;9.182;2023-06-04T11:14:06;7.70;;;3.40;;
19679;SDS011;9989;48.962;9.182;2023-06-04T11:16:37;8.20;;;3.60;;
19679;SDS011;9989;48.962;9.182;2023-06-04T11:19:03;7.00;;;3.30;;
19679;SDS011;9989;48.962;9.182;2023-06-04T11:21:29;10.00;;;3.27;;
19679;SDS011;9989;48.962;9.182;2023-06-04T11:23:57;7.90;;;3.37;;
19679;SDS011;9989;48.962;9.182;2023-06-04T11:26:29;7.50;;;3.57;;
19679;SDS011;9989;48.962;9.182;2023-06-04T11:28:56;7.70;;;3.43;;
19679;SDS011;9989;48.962;9.182;2023-06-04T11:31:21;7.83;;;3.40;;
19679;SDS011;9989;48.962;9.182;2023-06-04T11:33:47;7.93;;;3.57;;
19679;SDS011;9989;48.962;9.182;2023-06-04T11:36:26;8.73;;;3.67;;
19679;SDS011;9989;48.962;9.182;2023-06-04T11:38:57;6.90;;;3.30;;
19679;SDS011;9989;48.962;9.182;2023-06-04T11:41:23;6.67;;;3.10;;
19679;SDS011;9989;48.962;9.182;2023-06-04T11:43:52;10.07;;;3.20;;
19679;SDS011;9989;48.962;9.182;2023-06-04T11:46:17;10.83;;;3.50;;
19679;SDS011;9989;48.962;9.182;2023-06-04T11:48:44;7.60;;;3.03;;
19679;SDS011;9989;48.962;9.182;2023-06-04T11:51:10;5.93;;;2.83;;
19679;SDS011;9989;48.962;9.182;2023-06-04T11:53:37;7.60;;;3.33;;
19679;SDS011;9989;48.962;9.182;2023-06-04T11:56:03;6.80;;;3.33;;
19679;SDS011;9989;48.962;9.182;2023-06-04T11:58:29;13.90;;;3.57;;
19679;SDS011;9989;48.962;9.182;2023-06-04T12:00:56;8.93;;;3.23;;
19679;SDS011;9989;48.962;9.182;2023-06-04T12:03:35;7.43;;;3.40;;
19679;SDS011;9989;48.962;9.182;2023-06-04T12:06:12;9.97;;;3.93;;
19679;SDS011;9989;48.962;9.182;2023-06-04T12:08:51;9.80;;;3.37;;
19679;SDS011;9989;48.962;9.182;2023-06-04T12:13:56;6.80;;;3.20;;
19679;SDS011;9989;48.962;9.182;2023-06-04T12:16:29;6.93;;;2.93;;
19679;SDS011;9989;48.962;9.182;2023-06-04T12:19:06;7.57;;;3.43;;
19679;SDS011;9989;48.962;9.182;2023-06-04T12:21:36;6.63;;;3.00;;
19679;SDS011;9989;48.962;9.182;2023-06-04T12:26:32;7.60;;;3.60;;
19679;SDS011;9989;48.962;9.182;2023-06-04T12:29:06;6.80;;;3.00;;
19679;SDS011;9989;48.962;9.182;2023-06-04T12:31:44;10.37;;;3.63;;
19679;SDS011;9989;48.962;9.182;2023-06-04T12:34:13;8.90;;;3.50;;
19679;SDS011;9989;48.962;9.182;2023-06-04T12:36:39;6.20;;;3.10;;
19679;SDS011;9989;48.962;9.182;2023-06-04T12:39:05;7.23;;;3.40;;
19679;SDS011;9989;48.962;9.182;2023-06-04T12:41:32;10.10;;;3.50;;
19679;SDS011;9989;48.962;9.182;2023-06-04T12:43:58;10.73;;;3.50;;
19679;SDS011;9989;48.962;9.182;2023-06-04T12:46:27;7.20;;;3.20;;
19679;SDS011;9989;48.962;9.182;2023-06-04T12:48:53;8.17;;;3.33;;
19679;SDS011;9989;48.962;9.182;2023-06-04T12:51:19;8.07;;;3.10;;
19679;SDS011;9989;48.962;9.182;2023-06-04T12:53:46;8.30;;;3.50;;
19679;SDS011;9989;48.962;9.182;2023-06-04T12:56:12;9.93;;;3.47;;
19679;SDS011;9989;48.962;9.182;2023-06-04T12:58:38;8.33;;;3.53;;
19679;SDS011;9989;48.962;9.182;2023-06-04T13:01:04;7.37;;;3.37;;
19679;SDS011;9989;48.962;9.182;2023-06-04T13:03:30;8.90;;;3.67;;
19679;SDS011;9989;48.962;9.182;2023-06-04T13:05:56;10.60;;;3.87;;
19679;SDS011;9989;48.962;9.182;2023-06-04T13:08:22;8.63;;;4.00;;
19679;SDS011;9989;48.962;9.182;2023-06-04T13:10:49;7.50;;;3.70;;
19679;SDS011;9989;48.962;9.182;2023-06-04T13:13:16;8.43;;;3.90;;
19679;SDS011;9989;48.962;9.182;2023-06-04T13:15:43;8.97;;;3.83;;
19679;SDS011;9989;48.962;9.182;2023-06-04T13:18:09;9.67;;;3.83;;
19679;SDS011;9989;48.962;9.182;2023-06-04T13:20:35;8.17;;;3.43;;
19679;SDS011;9989;48.962;9.182;2023-06-04T13:23:02;7.63;;;3.63;;
19679;SDS011;9989;48.962;9.182;2023-06-04T13:25:28;6.10;;;2.57;;
19679;SDS011;9989;48.962;9.182;2023-06-04T13:27:54;8.50;;;3.10;;
19679;SDS011;9989;48.962;9.182;2023-06-04T13:30:20;7.73;;;3.27;;
19679;SDS011;9989;48.962;9.182;2023-06-04T13:32:47;9.63;;;4.07;;
19679;SDS011;9989;48.962;9.182;2023-06-04T13:35:13;7.53;;;3.40;;
19679;SDS011;9989;48.962;9.182;2023-06-04T13:37:38;8.43;;;3.50;;
19679;SDS011;9989;48.962;9.182;2023-06-04T13:40:04;6.50;;;3.07;;
19679;SDS011;9989;48.962;9.182;2023-06-04T13:42:31;6.70;;;3.20;;
19679;SDS011;9989;48.962;9.182;2023-06-04T13:44:56;7.83;;;2.90;;
19679;SDS011;9989;48.962;9.182;2023-06-04T13:47:22;6.73;;;3.10;;
19679;SDS011;9989;48.962;9.182;2023-06-04T13:49:48;8.50;;;3.67;;
19679;SDS011;9989;48.962;9.182;2023-06-04T13:52:13;8.17;;;3.30;;
19679;SDS011;9989;48.962;9.182;2023-06-04T13:54:39;7.50;;;3.50;;
19679;SDS011;9989;48.962;9.182;2023-06-04T13:57:05;8.20;;;3.50;;
19679;SDS011;9989;48.962;9.182;2023-06-04T13:59:32;9.30;;;3.53;;
19679;SDS011;9989;48.962;9.182;2023-06-04T14:01:59;9.87;;;4.30;;
19679;SDS011;9989;48.962;9.182;2023-06-04T14:04:25;8.13;;;3.80;;
19679;SDS011;9989;48.962;9.182;2023-06-04T14:06:51;10.23;;;3.90;;
19679;SDS011;9989;48.962;9.182;2023-06-04T14:09:16;8.77;;;3.07;;
19679;SDS011;9989;48.962;9.182;2023-06-04T14:11:42;9.47;;;3.37;;
19679;SDS011;9989;48.962;9.182;2023-06-04T14:14:07;7.80;;;3.50;;
19679;SDS011;9989;48.962;9.182;2023-06-04T14:16:34;9.07;;;3.07;;
19679;SDS011;9989;48.962;9.182;2023-06-04T14:18:59;11.37;;;3.37;;
19679;SDS011;9989;48.962;9.182;2023-06-04T14:21:26;9.23;;;3.50;;
19679;SDS011;9989;48.962;9.182;2023-06-04T14:23:52;5.90;;;2.70;;
19679;SDS011;9989;48.962;9.182;2023-06-04T14:26:18;6.77;;;3.10;;
19679;SDS011;9989;48.962;9.182;2023-06-04T14:28:45;6.40;;;3.03;;
19679;SDS011;9989;48.962;9.182;2023-06-04T14:31:11;5.83;;;2.60;;
19679;SDS011;9989;48.962;9.182;2023-06-04T14:33:37;6.80;;;2.83;;
19679;SDS011;9989;48.962;9.182;2023-06-04T14:36:03;6.87;;;2.93;;
19679;SDS011;9989;48.962;9.182;2023-06-04T14:38:29;9.40;;;3.33;;
19679;SDS011;9989;48.962;9.182;2023-06-04T14:40:55;6.90;;;2.93;;
19679;SDS011;9989;48.962;9.182;2023-06-04T14:43:21;6.63;;;2.80;;
19679;SDS011;9989;48.962;9.182;2023-06-04T14:45:47;7.90;;;2.90;;
19679;SDS011;9989;48.962;9.182;2023-06-04T14:48:13;5.50;;;2.53;;
19679;SDS011;9989;48.962;9.182;2023-06-04T14:50:39;7.30;;;2.77;;
19679;SDS011;9989;48.962;9.182;2023-06-04T14:53:05;7.43;;;3.13;;
19679;SDS011;9989;48.962;9.182;2023-06-04T14:55:33;6.67;;;3.03;;
19679;SDS011;9989;48.962;9.182;2023-06-04T14:57:59;6.17;;;2.60;;
19679;SDS011;9989;48.962;9.182;2023-06-04T15:00:25;7.70;;;3.37;;
19679;SDS011;9989;48.962;9.182;2023-06-04T15:02:51;8.13;;;3.27;;
19679;SDS011;9989;48.962;9.182;2023-06-04T15:05:16;6.10;;;3.03;;
19679;SDS011;9989;48.962;9.182;2023-06-04T15:07:42;6.10;;;2.67;;
19679;SDS011;9989;48.962;9.182;2023-06-04T15:10:08;5.53;;;2.23;;
19679;SDS011;9989;48.962;9.182;2023-06-04T15:12:34;7.40;;;2.87;;